createdAt,value
2019-02-19T00:00:58.016Z,11.37
2019-02-19T00:03:27.453Z,11.33
2019-02-19T00:05:56.965Z,11.57
2019-02-19T00:08:26.522Z,11.10
2019-02-19T00:10:56.203Z,12.20
2019-02-19T00:13:25.808Z,11.33
2019-02-19T00:15:55.343Z,12.13
2019-02-19T00:18:24.803Z,11.53
2019-02-19T00:20:54.451Z,12.70
2019-02-19T00:23:23.975Z,11.27
2019-02-19T00:25:53.515Z,12.43
2019-02-19T00:28:23.060Z,11.37
2019-02-19T00:30:52.546Z,10.93
2019-02-19T00:33:22.013Z,11.87
2019-02-19T00:35:51.470Z,11.80
2019-02-19T00:38:20.948Z,11.53
2019-02-19T00:40:50.440Z,11.13
2019-02-19T00:43:29.471Z,11.70
2019-02-19T00:45:58.945Z,11.27
2019-02-19T00:48:28.436Z,11.20
2019-02-19T00:50:57.920Z,10.93
2019-02-19T00:53:27.387Z,11.00
2019-02-19T00:55:56.909Z,11.60
2019-02-19T00:58:26.428Z,11.83
2019-02-19T01:00:55.914Z,10.27
2019-02-19T01:03:25.415Z,11.07
2019-02-19T01:05:55.069Z,10.73
2019-02-19T01:08:24.828Z,11.70
2019-02-19T01:10:54.319Z,11.40
2019-02-19T01:13:23.790Z,11.80
2019-02-19T01:15:53.256Z,10.87
2019-02-19T01:18:22.725Z,11.53
2019-02-19T01:20:52.204Z,10.47
2019-02-19T01:23:21.883Z,10.87
2019-02-19T01:25:51.433Z,11.83
2019-02-19T01:28:21.065Z,10.63
2019-02-19T01:30:50.626Z,11.77
2019-02-19T01:33:20.316Z,11.03
2019-02-19T01:35:50.119Z,10.87
2019-02-19T01:38:19.664Z,10.97
2019-02-19T01:40:49.159Z,11.20
2019-02-19T01:43:18.669Z,11.20
2019-02-19T01:45:48.159Z,10.63
2019-02-19T01:48:17.586Z,11.00
2019-02-19T01:50:47.057Z,10.43
2019-02-19T01:53:16.574Z,11.30
2019-02-19T01:55:46.063Z,11.13
2019-02-19T01:58:15.564Z,11.30
2019-02-19T02:00:45.113Z,10.40
2019-02-19T02:03:14.631Z,11.30
2019-02-19T02:05:44.176Z,10.60
2019-02-19T02:08:13.641Z,10.17
2019-02-19T02:10:43.084Z,11.13
2019-02-19T02:13:12.561Z,10.87
2019-02-19T02:15:42.898Z,11.23
2019-02-19T02:18:12.569Z,10.90
2019-02-19T02:20:42.074Z,11.00
2019-02-19T02:23:11.801Z,10.50
2019-02-19T02:25:41.239Z,11.90
2019-02-19T02:28:10.694Z,11.23
2019-02-19T02:30:40.154Z,10.57
2019-02-19T02:33:09.603Z,11.77
2019-02-19T02:35:39.106Z,11.43
2019-02-19T02:38:08.640Z,10.43
2019-02-19T02:40:38.124Z,10.97
2019-02-19T02:43:07.658Z,10.67
2019-02-19T02:45:37.226Z,11.27
2019-02-19T02:48:06.738Z,10.50
2019-02-19T02:50:36.203Z,11.23
2019-02-19T02:53:05.755Z,11.17
2019-02-19T02:55:35.237Z,11.30
2019-02-19T02:58:04.734Z,10.67
2019-02-19T03:00:34.264Z,10.70
2019-02-19T03:03:03.833Z,10.40
2019-02-19T03:05:33.440Z,10.83
2019-02-19T03:08:04.766Z,10.37
2019-02-19T03:10:34.297Z,10.10
2019-02-19T03:13:03.843Z,10.07
2019-02-19T03:15:33.301Z,9.90
2019-02-19T03:18:02.812Z,11.47
2019-02-19T03:20:32.350Z,10.87
2019-02-19T03:23:01.919Z,9.27
2019-02-19T03:25:31.418Z,10.77
2019-02-19T03:28:00.984Z,10.53
2019-02-19T03:30:30.520Z,9.87
2019-02-19T03:33:00.022Z,10.20
2019-02-19T03:35:29.569Z,10.50
2019-02-19T03:37:59.033Z,10.33
2019-02-19T03:40:28.499Z,9.53
2019-02-19T03:42:58.035Z,10.13
2019-02-19T03:45:27.555Z,10.20
2019-02-19T03:47:57.069Z,10.03
2019-02-19T03:50:26.580Z,10.30
2019-02-19T03:52:56.043Z,9.73
2019-02-19T03:55:25.561Z,8.97
2019-02-19T03:57:55.267Z,9.50
2019-02-19T04:00:24.922Z,9.63
2019-02-19T04:02:54.471Z,9.50
2019-02-19T04:05:24.041Z,9.90
2019-02-19T04:07:53.524Z,9.13
2019-02-19T04:10:23.033Z,9.47
2019-02-19T04:12:52.626Z,8.93
2019-02-19T04:15:22.092Z,9.67
2019-02-19T04:17:51.541Z,9.10
2019-02-19T04:20:21.116Z,8.73
2019-02-19T04:22:50.618Z,9.33
2019-02-19T04:25:20.067Z,9.63
2019-02-19T04:27:49.538Z,9.07
2019-02-19T04:30:19.019Z,9.37
2019-02-19T04:32:48.491Z,8.93
2019-02-19T04:35:17.953Z,9.43
2019-02-19T04:37:47.428Z,8.93
2019-02-19T04:40:16.944Z,9.30
2019-02-19T04:42:46.406Z,9.23
2019-02-19T04:45:15.977Z,9.40
2019-02-19T04:47:45.420Z,9.50
2019-02-19T04:50:14.884Z,9.13
2019-02-19T04:52:44.327Z,9.70
2019-02-19T04:55:13.923Z,8.60
2019-02-19T04:57:43.389Z,9.57
2019-02-19T05:00:13.575Z,9.23
2019-02-19T05:02:43.138Z,8.87
2019-02-19T05:05:12.759Z,9.87
2019-02-19T05:07:42.247Z,9.33
2019-02-19T05:10:11.787Z,9.63
2019-02-19T05:12:41.231Z,8.93
2019-02-19T05:15:10.856Z,10.97
2019-02-19T05:17:40.413Z,9.30
2019-02-19T05:20:09.889Z,8.70
2019-02-19T05:22:39.532Z,8.70
2019-02-19T05:25:09.199Z,9.63
2019-02-19T05:27:38.674Z,9.50
2019-02-19T05:30:08.659Z,9.33
2019-02-19T05:32:38.148Z,9.07
2019-02-19T05:35:07.841Z,10.00
2019-02-19T05:37:37.293Z,9.30
2019-02-19T05:40:07.043Z,10.10
2019-02-19T05:42:36.583Z,9.70
2019-02-19T05:45:06.345Z,9.77
2019-02-19T05:47:35.916Z,9.50
2019-02-19T05:50:06.020Z,9.90
2019-02-19T05:52:35.786Z,9.43
2019-02-19T05:55:05.748Z,9.73
2019-02-19T05:57:35.406Z,9.73
2019-02-19T06:00:05.166Z,9.63
2019-02-19T06:02:34.665Z,9.60
2019-02-19T06:05:05.786Z,9.00
2019-02-19T06:07:35.495Z,10.40
2019-02-19T06:10:05.712Z,10.27
2019-02-19T06:12:35.171Z,9.70
2019-02-19T06:15:06.926Z,9.53
2019-02-19T06:17:36.408Z,10.53
2019-02-19T06:20:06.118Z,9.87
2019-02-19T06:22:35.576Z,9.47
2019-02-19T06:25:05.853Z,9.83
2019-02-19T06:27:35.613Z,9.80
2019-02-19T06:30:07.780Z,9.80
2019-02-19T06:32:37.496Z,9.70
2019-02-19T06:35:07.298Z,10.60
2019-02-19T06:37:36.992Z,10.40
2019-02-19T06:40:07.193Z,9.83
2019-02-19T06:42:36.865Z,9.60
2019-02-19T06:45:06.536Z,9.23
2019-02-19T06:47:36.175Z,9.50
2019-02-19T06:50:05.841Z,9.20
2019-02-19T06:52:35.389Z,9.37
2019-02-19T06:55:05.387Z,9.93
2019-02-19T06:57:35.152Z,9.63
2019-02-19T07:00:05.472Z,9.97
2019-02-19T07:03:00.277Z,9.87
2019-02-19T07:05:29.794Z,9.07
2019-02-19T07:07:59.284Z,9.33
2019-02-19T07:10:28.769Z,9.10
2019-02-19T07:12:58.298Z,8.90
2019-02-19T07:15:27.895Z,9.10
2019-02-19T07:17:57.459Z,9.33
2019-02-19T07:20:27.004Z,9.60
2019-02-19T07:22:56.788Z,10.07
2019-02-19T07:25:26.400Z,9.40
2019-02-19T07:28:15.155Z,8.97
2019-02-19T07:30:44.892Z,10.53
2019-02-19T07:33:14.620Z,9.80
2019-02-19T07:35:44.105Z,9.33
2019-02-19T07:38:14.048Z,8.40
2019-02-19T07:40:43.748Z,9.10
2019-02-19T07:43:13.406Z,9.77
2019-02-19T07:45:43.008Z,9.70
2019-02-19T07:48:12.571Z,8.93
2019-02-19T07:50:42.078Z,10.07
2019-02-19T07:53:11.571Z,9.03
2019-02-19T07:55:41.239Z,10.20
2019-02-19T07:58:10.780Z,9.77
2019-02-19T08:00:40.385Z,10.03
2019-02-19T08:03:10.012Z,9.77
2019-02-19T08:05:39.537Z,8.97
2019-02-19T08:08:09.068Z,10.00
2019-02-19T08:10:40.187Z,10.23
2019-02-19T08:13:09.778Z,9.83
2019-02-19T08:15:39.389Z,10.63
2019-02-19T08:18:09.088Z,10.40
2019-02-19T08:20:39.751Z,9.60
2019-02-19T08:23:09.334Z,10.63
2019-02-19T08:25:38.835Z,10.33
2019-02-19T08:28:08.463Z,10.27
2019-02-19T08:30:38.085Z,10.40
2019-02-19T08:33:07.786Z,9.73
2019-02-19T08:35:37.391Z,9.80
2019-02-19T08:38:07.147Z,10.10
2019-02-19T08:40:36.777Z,10.87
2019-02-19T08:43:06.539Z,9.93
2019-02-19T08:45:36.197Z,9.90
2019-02-19T08:48:05.849Z,10.03
2019-02-19T08:50:35.414Z,9.90
2019-02-19T08:53:04.945Z,10.13
2019-02-19T08:55:34.953Z,9.43
2019-02-19T08:58:04.750Z,10.17
2019-02-19T09:00:34.291Z,9.63
2019-02-19T09:03:03.892Z,10.50
2019-02-19T09:05:34.117Z,9.47
2019-02-19T09:08:03.707Z,10.20
2019-02-19T09:10:33.318Z,10.03
2019-02-19T09:13:03.047Z,10.23
2019-02-19T09:15:32.675Z,10.33
2019-02-19T09:18:02.304Z,10.53
2019-02-19T09:20:31.875Z,9.77
2019-02-19T09:23:01.400Z,10.50
2019-02-19T09:25:30.942Z,10.73
2019-02-19T09:28:00.524Z,11.07
2019-02-19T09:30:30.126Z,10.77
2019-02-19T09:32:59.608Z,10.40
2019-02-19T09:35:29.243Z,10.77
2019-02-19T09:37:58.824Z,11.03
2019-02-19T09:40:28.505Z,11.37
2019-02-19T09:42:58.067Z,11.10
2019-02-19T09:45:27.684Z,11.50
2019-02-19T09:48:01.133Z,11.67
2019-02-19T09:50:28.442Z,11.07
2019-02-19T09:52:59.899Z,12.90
2019-02-19T09:55:29.275Z,12.23
2019-02-19T09:57:58.925Z,12.07
2019-02-19T10:00:28.613Z,13.13
2019-02-19T10:02:58.172Z,13.43
2019-02-19T10:05:27.743Z,13.13
2019-02-19T10:07:57.364Z,12.20
2019-02-19T10:10:27.076Z,12.33
2019-02-19T10:12:56.611Z,13.83
2019-02-19T10:15:26.270Z,12.83
2019-02-19T10:17:55.927Z,14.07
2019-02-19T10:20:25.506Z,13.40
2019-02-19T10:22:56.043Z,14.20
2019-02-19T10:25:25.697Z,13.97
2019-02-19T10:27:55.423Z,13.83
2019-02-19T10:30:24.980Z,15.70
2019-02-19T10:32:54.597Z,14.90
2019-02-19T10:35:24.171Z,16.23
2019-02-19T10:37:53.914Z,15.80
2019-02-19T10:40:23.705Z,16.57
2019-02-19T10:42:53.381Z,15.90
2019-02-19T10:45:23.081Z,16.63
2019-02-19T10:47:52.689Z,15.83
2019-02-19T10:50:22.237Z,16.67
2019-02-19T10:52:51.851Z,15.70
2019-02-19T10:55:21.475Z,16.20
2019-02-19T10:57:50.994Z,15.63
2019-02-19T11:00:20.783Z,15.33
2019-02-19T11:02:50.555Z,15.57
2019-02-19T11:05:20.364Z,16.67
2019-02-19T11:07:49.901Z,15.57
2019-02-19T11:10:19.487Z,15.73
2019-02-19T11:12:49.128Z,15.03
2019-02-19T11:15:18.621Z,15.40
2019-02-19T11:17:48.196Z,15.37
2019-02-19T11:20:17.896Z,14.33
2019-02-19T11:22:47.368Z,14.83
2019-02-19T11:25:16.970Z,14.87
2019-02-19T11:27:46.885Z,14.37
2019-02-19T11:30:27.996Z,14.83
2019-02-19T11:32:57.545Z,14.60
2019-02-19T11:35:27.160Z,15.50
2019-02-19T11:37:56.631Z,14.13
2019-02-19T11:40:26.136Z,13.63
2019-02-19T11:42:55.674Z,13.23
2019-02-19T11:45:25.326Z,12.43
2019-02-19T11:47:55.018Z,14.13
2019-02-19T11:50:24.593Z,12.73
2019-02-19T11:52:54.224Z,14.43
2019-02-19T11:55:23.922Z,14.10
2019-02-19T11:57:53.385Z,13.03
2019-02-19T12:00:28.310Z,12.57
2019-02-19T12:02:57.866Z,12.70
2019-02-19T12:05:27.493Z,12.63
2019-02-19T12:07:57.041Z,12.00
2019-02-19T12:10:26.704Z,11.73
2019-02-19T12:12:56.189Z,12.33
2019-02-19T12:15:25.695Z,12.83
2019-02-19T12:17:55.230Z,12.70
2019-02-19T12:20:25.121Z,12.33
2019-02-19T12:25:36.165Z,11.97
2019-02-19T12:28:05.820Z,12.07
2019-02-19T12:30:35.390Z,12.37
2019-02-19T12:33:04.937Z,11.50
2019-02-19T12:35:34.543Z,13.30
2019-02-19T12:38:04.097Z,12.03
2019-02-19T12:40:33.861Z,11.37
2019-02-19T12:43:03.450Z,11.67
2019-02-19T12:45:34.325Z,11.87
2019-02-19T12:48:04.057Z,11.73
2019-02-19T12:50:33.670Z,12.53
2019-02-19T12:53:03.232Z,12.40
2019-02-19T12:55:32.923Z,11.97
2019-02-19T12:58:02.474Z,12.23
2019-02-19T13:00:32.032Z,12.23
2019-02-19T13:03:01.652Z,12.03
2019-02-19T13:05:31.235Z,12.03
2019-02-19T13:08:00.840Z,12.40
2019-02-19T13:10:30.384Z,11.97
2019-02-19T13:12:59.966Z,11.43
2019-02-19T13:15:29.772Z,11.63
2019-02-19T13:17:59.334Z,12.03
2019-02-19T13:20:28.834Z,13.10
2019-02-19T13:22:58.346Z,12.70
2019-02-19T13:25:27.946Z,12.90
2019-02-19T13:27:57.492Z,11.93
2019-02-19T13:30:27.065Z,12.23
2019-02-19T13:32:56.715Z,12.70
2019-02-19T13:35:26.274Z,12.80
2019-02-19T13:37:55.833Z,12.40
2019-02-19T13:40:25.386Z,13.10
2019-02-19T13:42:54.885Z,11.87
2019-02-19T13:45:24.450Z,11.37
2019-02-19T13:47:54.068Z,11.93
2019-02-19T13:50:24.023Z,11.37
2019-02-19T13:53:11.573Z,11.60
2019-02-19T13:55:44.246Z,11.27
2019-02-19T13:58:13.961Z,10.30
2019-02-19T14:00:45.135Z,10.83
2019-02-19T14:03:14.807Z,10.43
2019-02-19T14:05:44.303Z,10.17
2019-02-19T14:08:14.824Z,10.00
2019-02-19T14:10:44.689Z,10.10
2019-02-19T14:13:14.329Z,8.93
2019-02-19T14:16:09.000Z,8.07
2019-02-19T14:18:59.534Z,8.23
2019-02-19T14:22:06.569Z,8.60
2019-02-19T14:25:03.910Z,9.33
2019-02-19T14:27:42.272Z,8.87
2019-02-19T14:30:34.419Z,9.00
2019-02-19T14:33:22.253Z,8.33
2019-02-19T14:36:05.986Z,8.50
2019-02-19T14:38:47.904Z,8.47
2019-02-19T14:41:27.364Z,8.70
2019-02-19T14:44:19.768Z,8.47
2019-02-19T14:47:17.698Z,8.10
2019-02-19T14:50:13.240Z,8.53
2019-02-19T14:53:00.443Z,8.50
2019-02-19T14:55:51.918Z,8.60
2019-02-19T14:58:34.200Z,8.73
2019-02-19T15:01:15.892Z,8.33
2019-02-19T15:04:10.506Z,7.40
2019-02-19T15:06:57.795Z,8.23
2019-02-19T15:09:45.365Z,7.63
2019-02-19T15:12:34.027Z,7.63
2019-02-19T15:15:11.362Z,8.17
2019-02-19T15:17:59.209Z,7.87
2019-02-19T15:20:41.251Z,8.20
2019-02-19T15:23:23.513Z,8.30
2019-02-19T15:26:21.889Z,8.30
2019-02-19T15:29:25.965Z,8.13
2019-02-19T15:32:26.771Z,8.97
2019-02-19T15:35:27.610Z,7.80
2019-02-19T15:38:15.077Z,8.40
2019-02-19T15:41:09.857Z,8.27
2019-02-19T15:43:53.161Z,7.97
2019-02-19T15:47:00.264Z,8.60
2019-02-19T15:49:48.166Z,8.20
2019-02-19T15:52:55.309Z,7.67
2019-02-19T15:55:51.297Z,7.73
2019-02-19T15:58:43.057Z,7.47
2019-02-19T16:01:28.458Z,7.00
2019-02-19T16:04:02.219Z,7.00
2019-02-19T16:06:56.990Z,7.63
2019-02-19T16:09:51.406Z,7.37
2019-02-19T16:12:28.628Z,7.90
2019-02-19T16:15:23.352Z,6.90
2019-02-19T16:18:27.304Z,7.00
2019-02-19T16:21:16.028Z,6.60
2019-02-19T16:23:56.381Z,7.27
2019-02-19T16:26:45.088Z,6.90
2019-02-19T16:29:36.663Z,5.83
2019-02-19T16:32:27.074Z,5.63
2019-02-19T16:35:11.196Z,5.97
2019-02-19T16:38:02.918Z,5.60
2019-02-19T16:40:54.611Z,7.00
2019-02-19T16:43:36.270Z,5.60
2019-02-19T16:46:33.111Z,5.90
2019-02-19T16:49:11.378Z,5.20
2019-02-19T16:51:51.778Z,5.03
2019-02-19T16:54:38.381Z,5.83
2019-02-19T16:57:30.193Z,5.90
2019-02-19T17:00:09.235Z,5.50
2019-02-19T17:02:58.013Z,5.77
2019-02-19T17:05:58.727Z,5.27
2019-02-19T17:08:45.238Z,5.40
2019-02-19T17:11:37.296Z,5.30
2019-02-19T17:14:33.164Z,4.63
2019-02-19T17:17:28.441Z,5.03
2019-02-19T17:20:04.571Z,5.00
2019-02-19T17:22:48.554Z,5.53
2019-02-19T17:25:36.307Z,4.50
2019-02-19T17:28:21.525Z,5.40
2019-02-19T17:31:13.227Z,5.83
2019-02-19T17:34:08.336Z,5.37
2019-02-19T17:36:47.403Z,4.77
2019-02-19T17:39:31.389Z,4.43
2019-02-19T17:42:19.254Z,4.40
2019-02-19T17:45:04.247Z,4.77
2019-02-19T17:47:51.938Z,4.63
2019-02-19T17:50:38.130Z,4.83
2019-02-19T17:53:20.273Z,4.53
2019-02-19T17:55:58.172Z,3.77
2019-02-19T17:58:31.648Z,4.23
2019-02-19T18:01:18.922Z,4.20
2019-02-19T18:04:00.366Z,3.70
2019-02-19T18:06:39.422Z,3.67
2019-02-19T18:09:29.174Z,3.57
2019-02-19T18:12:23.880Z,3.67
2019-02-19T18:15:12.560Z,3.67
2019-02-19T18:17:55.040Z,3.60
2019-02-19T18:20:24.655Z,3.53
2019-02-19T18:22:54.320Z,4.20
2019-02-19T18:25:23.995Z,2.90
2019-02-19T18:27:53.489Z,3.50
2019-02-19T18:30:23.161Z,2.83
2019-02-19T18:32:52.736Z,2.67
2019-02-19T18:35:22.415Z,2.93
2019-02-19T18:37:52.046Z,3.30
2019-02-19T18:40:21.826Z,2.93
2019-02-19T18:42:51.508Z,3.97
2019-02-19T18:45:21.172Z,2.97
2019-02-19T18:47:50.754Z,2.90
2019-02-19T18:50:20.326Z,2.60
2019-02-19T18:52:49.974Z,2.97
2019-02-19T18:55:19.659Z,2.73
2019-02-19T18:57:49.213Z,2.77
2019-02-19T19:00:18.803Z,2.90
2019-02-19T19:02:48.416Z,2.70
2019-02-19T19:05:17.938Z,2.43
2019-02-19T19:07:47.537Z,2.90
2019-02-19T19:10:17.133Z,2.87
2019-02-19T19:12:46.654Z,2.67
2019-02-19T19:15:16.310Z,3.00
2019-02-19T19:17:45.924Z,3.07
2019-02-19T19:20:15.519Z,2.87
2019-02-19T19:22:46.997Z,3.10
2019-02-19T19:25:16.475Z,3.07
2019-02-19T19:27:46.236Z,3.10
2019-02-19T19:30:16.122Z,3.10
2019-02-19T19:32:45.726Z,3.30
2019-02-19T19:35:15.262Z,3.23
2019-02-19T19:37:44.766Z,3.10
2019-02-19T19:40:14.338Z,2.63
2019-02-19T19:42:43.951Z,3.47
2019-02-19T19:45:13.693Z,3.60
2019-02-19T19:47:43.303Z,3.03
2019-02-19T19:50:13.032Z,3.40
2019-02-19T19:52:42.641Z,3.60
2019-02-19T19:55:12.348Z,4.20
2019-02-19T19:57:41.895Z,3.87
2019-02-19T20:00:11.742Z,4.17
2019-02-19T20:02:41.318Z,3.97
2019-02-19T20:05:10.898Z,3.20
2019-02-19T20:07:40.416Z,3.60
2019-02-19T20:10:10.080Z,3.80
2019-02-19T20:12:39.658Z,4.27
2019-02-19T20:15:09.617Z,4.10
2019-02-19T20:17:39.154Z,3.83
2019-02-19T20:20:10.566Z,3.77
2019-02-19T20:22:40.297Z,4.03
2019-02-19T20:25:10.407Z,3.70
2019-02-19T20:27:39.907Z,3.63
2019-02-19T20:30:10.406Z,4.23
2019-02-19T20:32:39.972Z,4.13
2019-02-19T20:35:09.801Z,4.00
2019-02-19T20:37:39.574Z,4.50
2019-02-19T20:40:09.289Z,3.70
2019-02-19T20:42:38.858Z,4.00
2019-02-19T20:45:08.554Z,4.13
2019-02-19T20:47:38.059Z,4.63
2019-02-19T20:50:08.172Z,3.90
2019-02-19T20:52:37.788Z,3.77
2019-02-19T20:55:07.411Z,4.43
2019-02-19T20:57:36.904Z,4.30
2019-02-19T21:00:09.989Z,4.37
2019-02-19T21:02:39.482Z,3.63
2019-02-19T21:05:09.760Z,3.80
2019-02-19T21:07:39.345Z,4.20
2019-02-19T21:10:11.932Z,3.93
2019-02-19T21:12:41.429Z,4.07
2019-02-19T21:15:11.018Z,4.47
2019-02-19T21:17:40.614Z,4.27
2019-02-19T21:20:10.256Z,4.07
2019-02-19T21:22:39.849Z,3.90
2019-02-19T21:25:09.713Z,3.67
2019-02-19T21:27:39.322Z,4.27
2019-02-19T21:30:09.814Z,4.47
2019-02-19T21:32:39.394Z,4.80
2019-02-19T21:35:09.262Z,4.60
2019-02-19T21:37:38.784Z,4.50
2019-02-19T21:40:08.816Z,5.53
2019-02-19T21:42:38.366Z,5.00
2019-02-19T21:45:08.418Z,5.00
2019-02-19T21:47:37.989Z,6.40
2019-02-19T21:50:08.032Z,4.63
2019-02-19T21:52:37.726Z,4.87
2019-02-19T21:55:07.566Z,4.33
2019-02-19T21:57:37.086Z,5.00
2019-02-19T22:00:07.438Z,4.93
2019-02-19T22:02:36.994Z,4.33
2019-02-19T22:05:06.613Z,4.77
2019-02-19T22:07:36.059Z,4.37
2019-02-19T22:10:05.734Z,4.33
2019-02-19T22:12:35.300Z,4.20
2019-02-19T22:15:05.563Z,4.10
2019-02-19T22:17:35.138Z,3.73
2019-02-19T22:20:06.855Z,3.57
2019-02-19T22:22:36.333Z,3.67
2019-02-19T22:25:06.352Z,3.60
2019-02-19T22:27:35.929Z,3.77
2019-02-19T22:30:05.883Z,3.50
2019-02-19T22:32:35.377Z,3.80
2019-02-19T22:35:05.463Z,3.57
2019-02-19T22:37:35.057Z,3.20
2019-02-19T22:40:04.979Z,3.60
2019-02-19T22:42:34.543Z,3.47
2019-02-19T22:45:04.732Z,3.80
2019-02-19T22:47:34.243Z,3.77
2019-02-19T22:50:03.822Z,3.20
2019-02-19T22:52:33.522Z,3.20
2019-02-19T22:55:30.676Z,3.33
2019-02-19T22:58:00.175Z,2.93
2019-02-19T23:00:50.391Z,3.37
2019-02-19T23:03:22.104Z,3.10
2019-02-19T23:05:51.596Z,3.13
2019-02-19T23:08:21.100Z,3.20
2019-02-19T23:10:50.597Z,3.30
2019-02-19T23:13:20.098Z,3.17
2019-02-19T23:15:49.565Z,3.00
2019-02-19T23:18:19.133Z,3.57
2019-02-19T23:21:00.850Z,3.83
2019-02-19T23:23:30.340Z,3.10
2019-02-19T23:25:59.872Z,3.23
2019-02-19T23:28:29.396Z,3.53
2019-02-19T23:30:59.056Z,3.67
2019-02-19T23:33:29.509Z,3.87
2019-02-19T23:36:09.640Z,4.57
2019-02-19T23:38:47.320Z,3.70
2019-02-19T23:41:16.857Z,3.43
2019-02-19T23:43:46.295Z,4.50
2019-02-19T23:46:15.797Z,4.37
2019-02-19T23:48:45.268Z,4.70
2019-02-19T23:51:14.849Z,4.50
2019-02-19T23:53:44.490Z,4.67
2019-02-19T23:56:13.967Z,4.80
2019-02-19T23:58:43.439Z,4.30
